METAR Data
IDs: Format: Raw Decoded Include TAF

Data at: 2008 UTC 18 Apr 2021

YMEN 182000Z AUTO 33006KT 9999 // NCD 12/09 Q1017